Terminal Aerodrome Forecast
Issued by NWS

Home | Current Version | Previous Version | Text Only | Print | Product List | Glossary On
Versions: 1 2 3 4 5 6 7 8 9 10 11 12
888
FTUS45 KTFX 051742
TAFHVR
TAF
KHVR 051742Z 0518/0618 26008KT P6SM FEW070 SCT200
     FM060200 36015G30KT P6SM VCSH SCT040 SCT100
     FM060900 36015KT P6SM -SHRA BKN040 BKN100
     FM061200 01010KT P6SM SCT040 BKN100=

USA.gov is the U.S. government's official web portal to all federal, state and local government web resources and services.